Map

Track Data

SID SEASON NUMBER BASIN SUBBASIN NAME ISO_TIME NATURE LAT LON WMO_WIND WMO_PRES WMO_AGENCY TRACK_TYPE DIST2LAND LANDFALL IFLAG USA_AGENCY USA_ATCF_ID USA_LAT USA_LON USA_RECORD USA_STATUS USA_WIND USA_PRES USA_SSHS USA_R34_NE USA_R34_SE USA_R34_SW USA_R34_NW USA_R50_NE USA_R50_SE USA_R50_SW USA_R50_NW USA_R64_NE USA_R64_SE USA_R64_SW USA_R64_NW USA_POCI USA_ROCI USA_RMW USA_EYE TOKYO_LAT TOKYO_LON TOKYO_GRADE TOKYO_WIND TOKYO_PRES TOKYO_R50_DIR TOKYO_R50_LONG TOKYO_R50_SHORT TOKYO_R30_DIR TOKYO_R30_LONG TOKYO_R30_SHORT TOKYO_LAND CMA_LAT CMA_LON CMA_CAT CMA_WIND CMA_PRES HKO_LAT HKO_LON HKO_CAT HKO_WIND HKO_PRES NEWDELHI_LAT NEWDELHI_LON NEWDELHI_GRADE NEWDELHI_WIND NEWDELHI_PRES NEWDELHI_CI NEWDELHI_DP NEWDELHI_POCI REUNION_LAT REUNION_LON REUNION_TYPE REUNION_WIND REUNION_PRES REUNION_TNUM REUNION_CI REUNION_RMW REUNION_R34_NE REUNION_R34_SE REUNION_R34_SW REUNION_R34_NW REUNION_R50_NE REUNION_R50_SE REUNION_R50_SW REUNION_R50_NW REUNION_R64_NE REUNION_R64_SE REUNION_R64_SW REUNION_R64_NW BOM_LAT BOM_LON BOM_TYPE BOM_WIND BOM_PRES BOM_TNUM BOM_CI BOM_RMW BOM_R34_NE BOM_R34_SE BOM_R34_SW BOM_R34_NW BOM_R50_NE BOM_R50_SE BOM_R50_SW BOM_R50_NW BOM_R64_NE BOM_R64_SE BOM_R64_SW BOM_R64_NW BOM_ROCI BOM_POCI BOM_EYE BOM_POS_METHOD BOM_PRES_METHOD NADI_LAT NADI_LON NADI_CAT NADI_WIND NADI_PRES WELLINGTON_LAT WELLINGTON_LON WELLINGTON_WIND WELLINGTON_PRES DS824_LAT DS824_LON DS824_STAGE DS824_WIND DS824_PRES TD9636_LAT TD9636_LON TD9636_STAGE TD9636_WIND TD9636_PRES TD9635_LAT TD9635_LON TD9635_WIND TD9635_PRES TD9635_ROCI NEUMANN_LAT NEUMANN_LON NEUMANN_CLASS NEUMANN_WIND NEUMANN_PRES MLC_LAT MLC_LON MLC_CLASS MLC_WIND MLC_PRES USA_GUST BOM_GUST BOM_GUST_PER REUNION_GUST REUNION_GUST_PER USA_SEAHGT USA_SEARAD_NE USA_SEARAD_SE USA_SEARAD_SW USA_SEARAD_NW STORM_SPEED STORM_DIR
1954231N10159 1954 44 WP MM IDA 1954-08-18 12:00:00 TS 10.0000 158.500 main 1650 1635 O________OOO__ jtwc_wp WP061954 10.0000 158.500 15 -1 10.0000 158.500 TC 15 10.0000 158.500 1 15 10.0000 158.500 15 1009 60 6 270
1954231N10159 1954 44 WP MM IDA 1954-08-18 15:00:00 TS 9.99971 158.198 main 1635 1620 P________PPP__ WP061954 10.0001 158.200 15 -1 10.0001 158.200 TC 15 9.99868 158.192 1 15 10.0001 158.200 15 1009 60 6 270
1954231N10159 1954 44 WP MM IDA 1954-08-18 18:00:00 TS 9.99944 157.897 main 1620 1605 O________OPO__ jtwc_wp WP061954 10.0000 157.900 15 -1 10.0000 157.900 TC 15 9.99777 157.887 1 15 10.0000 157.900 15 1009 60 6 270
1954231N10159 1954 44 WP MM IDA 1954-08-18 21:00:00 TS 9.99947 157.597 main 1605 1590 P________PPP__ WP061954 9.99997 157.600 15 -1 9.99997 157.600 TC 15 9.99797 157.589 1 15 9.99997 157.600 15 1008 60 6 270
1954231N10159 1954 44 WP MM IDA 1954-08-19 00:00:00 TS 10.0000 157.300 main 1590 1575 O________OOO__ jtwc_wp WP061954 10.0000 157.300 15 -1 10.0000 157.300 TC 15 10.0000 157.300 1 15 10.0000 157.300 15 1008 60 6 270
1954231N10159 1954 44 WP MM IDA 1954-08-19 03:00:00 TS 10.0010 157.000 main 1575 1561 P________PPP__ WP061954 9.99999 156.993 15 -1 9.99999 156.993 TC 15 10.0039 157.022 1 15 9.99999 156.993 15 1008 60 6 270
1954231N10159 1954 44 WP MM IDA 1954-08-19 06:00:00 TS 10.0018 156.713 main 1561 1552 O________OPO__ jtwc_wp WP061954 10.0000 156.700 15 -1 10.0000 156.700 TC 15 10.0073 156.750 1 15 10.0000 156.700 15 1008 60 5 270
1954231N10159 1954 44 WP MM IDA 1954-08-19 09:00:00 TS 10.0017 156.463 main 1552 1539 P________PPP__ WP061954 9.99993 156.458 15 -1 9.99993 156.458 TC 15 10.0071 156.478 1 15 9.99993 156.458 15 1008 60 5 270
1954231N10159 1954 44 WP MM IDA 1954-08-19 12:00:00 TS 10.0000 156.200 main 1539 1527 O________OOO__ jtwc_wp WP061954 10.0000 156.200 15 -1 10.0000 156.200 TC 15 10.0000 156.200 1 15 10.0000 156.200 15 1008 60 6 270
1954231N10159 1954 44 WP MM IDA 1954-08-19 15:00:00 TS 10.0002 155.863 main 1527 1511 P________PPP__ WP061954 10.0075 155.850 15 -1 10.0075 155.850 TC 15 9.97810 155.903 1 15 10.0075 155.850 15 1007 60 7 269
1954231N10159 1954 44 WP MM IDA 1954-08-19 18:00:00 TS 9.98749 155.525 main 1511 1504 O________OPO__ jtwc_wp WP061954 10.0000 155.500 15 -1 10.0000 155.500 TC 15 9.94997 155.600 1 15 10.0000 155.500 15 1007 60 6 265
1954231N10159 1954 44 WP MM IDA 1954-08-19 21:00:00 TS 9.94855 155.250 main 1493 1483 P________PPP__ WP061954 9.95744 155.235 15 -1 9.95744 155.235 TC 15 9.92185 155.297 1 15 9.95744 155.235 15 1007 60 5 260
1954231N10159 1954 44 WP MM IDA 1954-08-20 00:00:00 TS 9.90000 155.000 main 1483 1476 O________OOO__ jtwc_wp WP061954 9.90000 155.000 15 -1 9.90000 155.000 TC 15 9.90000 155.000 1 15 9.90000 155.000 15 1007 60 5 259
1954231N10159 1954 44 WP MM IDA 1954-08-20 03:00:00 TS 9.85042 154.748 main 1473 1456 P________PPP__ WP061954 9.83496 154.757 15 -1 9.83496 154.757 TC 15 9.89678 154.718 1 15 9.83496 154.757 15 1006 60 5 262
1954231N10159 1954 44 WP MM IDA 1954-08-20 06:00:00 TS 9.82497 154.486 main 1456 1450 O________OPO__ jtwc_wp WP061954 9.80000 154.500 15 -1 9.80000 154.500 TC 15 9.89987 154.443 1 15 9.80000 154.500 15 1006 60 5 271
1954231N10159 1954 44 WP MM IDA 1954-08-20 09:00:00 TS 9.86325 154.198 main 1458 1450 P________PPP__ WP061954 9.84999 154.208 15 -1 9.84999 154.208 TC 15 9.90303 154.171 1 15 9.84999 154.208 15 1006 60 6 277
1954231N10159 1954 44 WP MM IDA 1954-08-20 12:00:00 TS 9.90000 153.900 main 1450 1443 O________OOO__ jtwc_wp WP061954 9.90000 153.900 15 -1 9.90000 153.900 TC 15 9.90000 153.900 1 15 9.90000 153.900 15 1006 60 6 270
1954231N10159 1954 44 WP MM IDA 1954-08-20 15:00:00 TS 9.85959 153.601 main 1443 1425 P________PPP__ WP061954 9.85749 153.592 15 -1 9.85749 153.592 TC 15 9.86587 153.625 1 16 9.85749 153.592 15 1006 60 6 261
1954231N10159 1954 44 WP MM IDA 1954-08-20 18:00:00 TS 9.80685 153.312 main 1425 1421 O________OPO__ jtwc_wp WP061954 9.80000 153.300 15 -1 9.80000 153.300 TC 15 9.82741 153.350 1 18 9.80000 153.300 15 1006 60 5 262
1954231N10159 1954 44 WP MM IDA 1954-08-20 21:00:00 TS 9.78313 153.062 main 1421 1416 P________PPP__ WP061954 9.77743 153.057 17 -1 9.77743 153.057 TC 17 9.80025 153.075 1 20 9.77743 153.057 18 1005 60 5 269
1954231N10159 1954 44 WP MM IDA 1954-08-21 00:00:00 TS 9.80000 152.800 main 1416 1413 O________OOO__ jtwc_wp WP061954 9.80000 152.800 20 -1 9.80000 152.800 TC 20 9.80000 152.800 1 22 9.80000 152.800 22 1005 60 6 279
1954231N10159 1954 44 WP MM IDA 1954-08-21 03:00:00 TS 9.87995 152.464 main 1422 1419 P________PPP__ WP061954 9.89257 152.443 25 -1 9.89257 152.443 TC 25 9.84210 152.529 1 24 9.89257 152.443 26 1005 60 7 285
1954231N10159 1954 44 WP MM IDA 1954-08-21 06:00:00 TS 9.97809 152.139 main 1429 1427 O________OPO__ jtwc_wp WP061954 10.0000 152.100 30 -1 10.0000 152.100 TC 30 9.91237 152.258 1 26 10.0000 152.100 30 1005 60 6 286
1954231N10159 1954 44 WP MM IDA 1954-08-21 09:00:00 TS 10.0378 151.921 main 1427 1427 P________PPP__ WP061954 10.0499 151.900 30 -1 10.0499 151.900 TC 30 10.0015 151.982 1 28 10.0499 151.900 30 1004 60 5 286
1954231N10159 1954 44 WP MM IDA 1954-08-21 12:00:00 TS 10.1000 151.700 main 1436 1435 O________OOO__ jtwc_wp WP061954 10.1000 151.700 30 -1 10.1000 151.700 TC 30 10.1000 151.700 1 30 10.1000 151.700 30 1004 60 6 286
1954231N10159 1954 44 WP MM IDA 1954-08-21 15:00:00 TS 10.1926 151.368 main 1446 1441 P________PPP__ WP061954 10.1926 151.358 30 -1 10.1926 151.358 TC 30 10.1928 151.399 1 30 10.1926 151.358 30 1004 90 7 287
1954231N10159 1954 44 WP MM IDA 1954-08-21 18:00:00 TS 10.2981 151.023 main 1445 1442 O________OPO__ jtwc_wp WP061954 10.3000 151.000 30 -1 10.3000 151.000 TC 30 10.2925 151.093 1 30 10.3000 151.000 30 1004 120 6 289
1954231N10159 1954 44 WP MM IDA 1954-08-21 21:00:00 TS 10.3989 150.749 main 1447 1444 P________PPP__ WP061954 10.3999 150.735 30 -1 10.3999 150.735 TC 30 10.3959 150.790 1 30 10.3999 150.735 30 1004 120 6 291
1954231N10159 1954 44 WP MM IDA 1954-08-22 00:00:00 TS 10.5000 150.500 main 1452 1450 O________OOO__ jtwc_wp WP061954 10.5000 150.500 30 -1 10.5000 150.500 TC 30 10.5000 150.500 1 30 10.5000 150.500 30 1004 120 5 292
1954231N10159 1954 44 WP MM IDA 1954-08-22 03:00:00 TS 10.5989 150.247 main 1456 1454 P________PPP__ WP061954 10.6000 150.250 30 -1 10.6000 150.250 TC 30 10.5958 150.240 1 30 10.6000 150.250 30 1003 120 5 292
1954231N10159 1954 44 WP MM IDA 1954-08-22 06:00:00 TS 10.6981 149.998 main 1462 1460 O________OPO__ jtwc_wp WP061954 10.7000 150.000 30 -1 10.7000 150.000 TC 30 10.6923 149.992 1 30 10.7000 150.000 30 1003 120 5 292
1954231N10159 1954 44 WP MM IDA 1954-08-22 09:00:00 TS 10.7925 149.755 main 1469 1465 P________PPP__ WP061954 10.7925 149.757 30 -1 10.7925 149.757 TC 30 10.7927 149.749 1 30 10.7925 149.757 30 1003 120 5 292
1954231N10159 1954 44 WP MM IDA 1954-08-22 12:00:00 TS 10.9000 149.500 main 1475 1473 O________OOO__ jtwc_wp WP061954 10.9000 149.500 30 -1 10.9000 149.500 TC 30 10.9000 149.500 1 30 10.9000 149.500 30 1003 120 6 295
1954231N10159 1954 44 WP MM IDA 1954-08-22 15:00:00 TS 11.0409 149.207 main 1481 1481 P________PPP__ WP061954 11.0500 149.200 30 -1 11.0500 149.200 TC 30 11.0137 149.228 1 30 11.0500 149.200 30 1003 120 6 296
1954231N10159 1954 44 WP MM IDA 1954-08-22 18:00:00 TS 11.1837 148.912 main 1499 1497 O________OPO__ jtwc_wp WP061954 11.2000 148.900 30 -1 11.2000 148.900 TC 30 11.1350 148.950 1 30 11.2000 148.900 30 1003 120 6 294
1954231N10159 1954 44 WP MM IDA 1954-08-22 21:00:00 TS 11.2853 148.650 main 1507 1506 P________PPP__ WP061954 11.2925 148.642 30 -1 11.2925 148.642 TC 30 11.2637 148.672 1 30 11.2925 148.642 30 1002 150 5 293
1954231N10159 1954 44 WP MM IDA 1954-08-23 00:00:00 TS 11.4000 148.400 main 1516 1515 O________OOO__ jtwc_wp WP061954 11.4000 148.400 30 -1 11.4000 148.400 TC 30 11.4000 148.400 1 30 11.4000 148.400 30 1002 180 6 301
1954231N10159 1954 44 WP MM IDA 1954-08-23 03:00:00 TS 11.5846 148.148 main 1536 1536 P________PPP__ WP061954 11.6000 148.150 30 -1 11.6000 148.150 TC 30 11.5387 148.143 1 30 11.6000 148.150 30 1002 180 5 302
1954231N10159 1954 44 WP MM IDA 1954-08-23 06:00:00 TS 11.6411 147.998 1006 tokyo main 1536 1536 OOO______OPO__ jtwc_wp WP061954 11.8000 147.900 30 -1 10.6000 148.800 2 1006 0 0 0 10.6000 148.800 0 1006 11.8000 147.900 TC 30 11.6849 147.892 1 30 11.8000 147.900 30 1002 180 4 288
1954231N10159 1954 44 WP MM IDA 1954-08-23 09:00:00 TS 11.6972 147.801 main 1546 1546 PPP______PPP__ WP061954 11.9075 147.650 30 -1 10.8926 148.420 2 1005 0 0 10.9577 148.398 0 1005 11.9075 147.650 TC 30 11.8387 147.646 1 30 11.9075 147.650 30 1001 210 5 290
1954231N10159 1954 44 WP MM IDA 1954-08-23 12:00:00 TS 11.7955 147.564 1004 tokyo main 1557 1557 OOO______OOO__ jtwc_wp WP061954 12.0000 147.400 30 -1 11.2000 148.000 2 1004 0 0 0 11.3000 148.000 0 1004 12.0000 147.400 TC 30 12.0000 147.400 1 30 12.0000 147.400 30 1001 240 6 297
1954231N10159 1954 44 WP MM IDA 1954-08-23 15:00:00 TS 11.9516 147.287 main 1579 1579 PPP______PPP__ WP061954 12.1350 147.150 30 -1 11.5225 147.515 2 1004 0 0 11.6148 147.595 0 1004 12.1350 147.150 TC 30 12.1677 147.162 1 33 12.1350 147.150 30 1001 270 7 301
1954231N10159 1954 44 WP MM IDA 1954-08-23 18:00:00 TS 12.1570 146.954 1004 tokyo main 1602 1602 OOO______OPO__ jtwc_wp WP061954 12.3000 146.900 30 -1 11.8000 147.000 2 1004 0 0 0 11.9000 147.100 0 1004 12.3000 146.900 TC 30 12.3423 146.922 1 36 12.3000 146.900 30 1001 300 8 302
1954231N10159 1954 44 WP MM IDA 1954-08-23 21:00:00 TS 12.3684 146.599 main 1624 1624 PPP______PPP__ WP061954 12.5075 146.650 35 0 11.9721 146.545 2 1004 0 0 12.1951 146.430 0 1004 12.5075 146.650 TC 35 12.5208 146.671 1 39 12.5075 146.650 36 1001 270 8 299
1954231N10159 1954 44 WP MM IDA 1954-08-24 00:00:00 TS 12.5500 146.217 1004 tokyo main 1647 1636 OOO______OOO__ jtwc_wp WP061954 12.7000 146.400 40 0 12.1000 146.000 9 1004 0 0 0 12.4000 145.700 1 29 1004 12.7000 146.400 TC 40 12.7000 146.400 2 42 12.7000 146.400 42 1001 240 8 291
1954231N10159 1954 44 WP MM IDA 1954-08-24 03:00:00 TS 12.6556 145.831 main 1660 1660 PPP______PPP__ WP061954 12.7924 146.172 47 0 12.2653 145.215 9 1002 0 0 12.4298 145.042 1 33 1002 12.7924 146.172 TC 47 12.8612 146.209 2 45 12.7924 146.172 48 1000 240 8 285
1954231N10159 1954 44 WP MM IDA 1954-08-24 06:00:00 TS 12.7541 145.413 1000 tokyo main 1674 1674 OOO______OPO__ jtwc_wp WP061954 12.9000 145.900 55 0 12.4000 144.400 9 1000 0 0 0 12.4000 144.400 2 38 1000 12.9000 145.900 TC 55 13.0247 145.981 2 48 12.9000 145.900 55 1000 240 8 288
1954231N10159 1954 44 WP MM IDA 1954-08-24 09:00:00 TS 12.9160 145.005 main 1689 1689 PPP______PPP__ WP061954 13.1344 145.612 55 0 12.4569 143.800 9 998 0 0 12.4348 143.757 2 43 998 13.1344 145.612 TC 55 13.2010 145.637 2 51 13.1344 145.612 55 1000 240 10 290
1954231N10159 1954 44 WP MM IDA 1954-08-24 12:00:00 TS 13.1000 144.450 996 tokyo main 1718 1718 OOO______OOO__ jtwc_wp WP061954 13.4000 145.100 55 0 12.5000 143.200 9 996 0 0 0 12.5000 143.100 3 48 996 13.4000 145.100 TC 55 13.4000 145.100 2 55 13.4000 145.100 55 1000 240 14 284
1954231N10159 1954 44 WP MM IDA 1954-08-24 15:00:00 TS 13.2590 143.609 main 1756 1752 PPP______PPP__ WP061954 13.5929 144.197 55 0 12.5776 142.415 9 996 0 0 12.5624 142.407 3 53 993 13.5929 144.197 TC 55 13.6352 144.241 2 56 13.5929 144.197 55 999 240 18 281
1954231N10159 1954 44 WP MM IDA 1954-08-24 18:00:00 TS 13.4482 142.632 996 tokyo main 1749 1739 OOO______OPO__ jtwc_wp WP061954 13.8000 143.100 55 0 12.7000 141.600 9 996 0 0 0 12.7000 141.700 3 58 990 13.8000 143.100 TC 55 13.8889 143.193 2 57 13.8000 143.100 55 999 240 19 283
1954231N10159 1954 44 WP MM IDA 1954-08-24 21:00:00 TS 13.6858 141.669 main 1745 1663 PPP______PPP__ WP061954 14.0923 142.043 57 0 12.7874 140.854 9 996 0 0 12.9026 140.955 3 63 987 14.0923 142.043 TC 57 14.1477 142.074 2 58 14.0923 142.043 57 998 270 19 287
1954231N10159 1954 44 WP MM IDA 1954-08-25 00:00:00 TS 14.0000 140.750 996 tokyo main 1663 1587 OOO______OOO__ jtwc_wp WP061954 14.4000 141.000 60 0 13.1000 140.200 9 996 0 0 0 13.3000 140.300 4 68 985 14.4000 141.000 TC 60 14.4000 141.000 2 60 14.4000 141.000 60 998 300 18 294
1954231N10159 1954 44 WP MM IDA 1954-08-25 03:00:00 TS 14.4355 139.951 main 1587 1520 PPP______PPP__ WP061954 14.6649 139.990 62 0 13.9495 139.701 9 983 0 0 14.0343 139.907 4 72 980 14.6649 139.990 TC 62 14.6344 140.127 2 62 14.6649 139.990 62 992 300 17 300
1954231N10159 1954 44 WP MM IDA 1954-08-25 06:00:00 TS 14.8604 139.219 970 tokyo main 1511 1452 OOO______OPO__ jtwc_wp WP061954 14.9000 139.100 65 1 14.8000 139.200 9 970 0 0 0 14.8000 139.500 4 77 975 14.9000 139.100 TC 65 14.8626 139.317 2 65 14.9000 139.100 65 987 300 15 297
1954231N10159 1954 44 WP MM IDA 1954-08-25 09:00:00 TS 15.1245 138.536 main 1442 1383 PPP______PPP__ WP061954 15.0991 138.435 67 1 15.0749 138.544 9 970 0 0 15.2900 138.818 4 82 970 15.0991 138.435 TC 67 15.0847 138.549 2 67 15.0991 138.435 67 974 330 14 289
1954231N10159 1954 44 WP MM IDA 1954-08-25 12:00:00 TS 15.3333 137.833 970 tokyo main 1373 1308 OOO______OOO__ jtwc_wp WP061954 15.3000 137.800 70 1 15.2000 137.800 9 970 0 0 0 15.6000 138.000 5 87 965 15.3000 137.800 TC 70 15.3000 137.800 3 70 15.3000 137.800 70 962 360 15 288
1954231N10159 1954 44 WP MM IDA 1954-08-25 15:00:00 TS 15.5898 137.014 main 1298 1223 PPP______PPP__ WP061954 15.5578 136.950 72 1 15.5649 137.015 9 965 0 0 15.7948 137.165 5 96 957 15.5578 136.950 TC 72 15.5057 137.055 3 78 15.5578 136.950 72 949 330 17 287
1954231N10159 1954 44 WP MM IDA 1954-08-25 18:00:00 TS 15.8176 136.187 960 tokyo main 1223 1159 OOO______OPO__ jtwc_wp WP061954 15.8000 136.100 75 1 15.9000 136.200 9 960 0 0 0 15.9000 136.300 6 106 950 15.8000 136.100 TC 75 15.7054 136.321 3 86 15.8000 136.100 75 937 300 15 284
1954231N10159 1954 44 WP MM IDA 1954-08-25 21:00:00 TS 15.9644 135.472 main 1159 1093 PPP______PPP__ WP061954 15.9564 135.472 87 2 16.0222 135.399 9 945 0 0 15.9923 135.442 6 116 940 15.9564 135.472 TC 87 15.9024 135.577 3 94 15.9564 135.472 88 924 300 14 281
1954231N10159 1954 44 WP MM IDA 1954-08-26 00:00:00 TS 16.1000 134.733 930 tokyo main 1083 1015 OOO______OOO__ jtwc_wp WP061954 16.1000 134.800 100 3 16.1000 134.600 9 930 0 0 0 16.1000 134.600 6 126 930 16.1000 134.800 TC 100 16.1000 134.800 4 102 16.1000 134.800 102 912 300 16 282
1954231N10159 1954 44 WP MM IDA 1954-08-26 03:00:00 TS 16.2863 133.828 main 1005 940 PPP______PPP__ WP061954 16.2932 133.815 115 4 16.2773 133.792 9 912 0 0 16.2771 133.792 6 140 912 16.2932 133.815 TC 115 16.2839 133.940 4 109 16.2932 133.815 116 901 330 18 283
1954231N10159 1954 44 WP MM IDA 1954-08-26 06:00:00 TS 16.4951 132.908 895 tokyo main 931 871 OOO______OPO__ jtwc_wp WP061954 16.5000 132.800 130 4 16.5000 133.000 9 895 0 0 0 16.5000 133.000 6 155 895 16.5000 132.800 TC 130 16.4703 133.049 4 116 16.5000 132.800 130 891 360 17 284
1954231N10159 1954 44 WP MM IDA 1954-08-26 09:00:00 TS 16.7027 132.102 main 871 822 PPP______PPP__ WP061954 16.6918 132.012 130 4 16.7346 132.242 9 895 0 0 16.7349 132.177 6 155 895 16.6918 132.012 TC 130 16.6714 132.158 4 123 16.6918 132.012 130 893 360 16 286
1954231N10159 1954 44 WP MM IDA 1954-08-26 12:00:00 TS 16.9333 131.350 895 tokyo main 812 764 OOO______OOO__ jtwc_wp WP061954 16.9000 131.300 130 4 17.0000 131.500 9 895 0 0 0 17.0000 131.400 6 155 895 16.9000 131.300 TC 130 16.9000 131.300 4 130 16.9000 131.300 130 895 360 15 289
1954231N10159 1954 44 WP MM IDA 1954-08-26 15:00:00 TS 17.1886 130.615 main 760 713 PPP______PPP__ WP061954 17.1272 130.550 140 5 17.2920 130.765 9 895 0 0 17.2842 130.757 6 155 895 17.1272 130.550 TC 140 17.1737 130.518 4 135 17.1272 130.550 140 896 390 15 291
1954231N10159 1954 44 WP MM IDA 1954-08-26 18:00:00 TS 17.4792 129.878 895 tokyo main 713 665 OOO______OPO__ jtwc_wp WP061954 17.4000 129.800 150 5 17.6000 130.000 9 895 0 0 0 17.6000 130.100 6 155 895 17.4000 129.800 TC 150 17.4753 129.770 4 140 17.4000 129.800 150 898 420 16 293
1954231N10159 1954 44 WP MM IDA 1954-08-26 21:00:00 TS 17.8123 129.095 main 665 634 PPP______PPP__ WP061954 17.7423 129.043 150 5 17.9001 129.142 9 895 0 0 17.9577 129.265 6 155 895 17.7423 129.043 TC 150 17.7894 129.037 4 145 17.7423 129.043 150 898 420 16 294
1954231N10159 1954 44 WP MM IDA 1954-08-27 00:00:00 TS 18.1500 128.317 895 tokyo main 629 559 OOO______OOO__ jtwc_wp WP061954 18.1000 128.300 150 5 18.2000 128.300 9 895 0 0 0 18.3000 128.400 6 155 895 18.1000 128.300 TC 150 18.1000 128.300 4 150 18.1000 128.300 150 899 420 16 294
1954231N10159 1954 44 WP MM IDA 1954-08-27 03:00:00 TS 18.4565 127.603 main 559 486 PPP______PPP__ WP061954 18.4144 127.615 140 5 18.5143 127.592 9 892 0 0 18.5719 127.642 6 160 892 18.4144 127.615 TC 140 18.4096 127.540 4 145 18.4144 127.615 140 897 390 15 293
1954231N10159 1954 44 WP MM IDA 1954-08-27 06:00:00 TS 18.7348 126.879 890 tokyo main 486 405 OOO______OPO__ jtwc_wp WP061954 18.7000 126.900 130 4 18.8000 126.900 9 890 0 0 0 18.8000 126.900 6 165 890 18.7000 126.900 TC 130 18.7085 126.773 4 140 18.7000 126.900 130 895 360 16 290
1954231N10159 1954 44 WP MM IDA 1954-08-27 09:00:00 TS 18.9976 126.065 main 405 328 PPP______PPP__ WP061954 18.9877 126.050 130 4 19.0222 126.122 9 892 0 0 19.0220 126.122 6 160 892 18.9877 126.050 TC 130 18.9782 125.994 4 135 18.9877 126.050 130 894 330 16 287
1954231N10159 1954 44 WP MM IDA 1954-08-27 12:00:00 TS 19.2000 125.233 895 tokyo main 318 252 OOO______OOO__ jtwc_wp WP061954 19.2000 125.200 130 4 19.2000 125.300 9 895 0 0 0 19.2000 125.300 6 155 895 19.2000 125.200 TC 130 19.2000 125.200 4 130 19.2000 125.200 130 894 300 15 282
1954231N10159 1954 44 WP MM IDA 1954-08-27 15:00:00 TS 19.3049 124.468 main 252 184 PPP______PPP__ WP061954 19.2640 124.514 127 4 19.3646 124.465 9 895 0 0 19.3147 124.422 6 155 895 19.2640 124.514 TC 127 19.3580 124.376 4 127 19.2640 124.514 127 894 300 15 277
1954231N10159 1954 44 WP MM IDA 1954-08-27 18:00:00 TS 19.3778 123.674 895 tokyo main 184 133 OOO______OPO__ jtwc_wp WP061954 19.3000 123.800 125 4 19.5000 123.600 9 895 0 0 0 19.4000 123.500 6 155 895 19.3000 123.800 TC 125 19.4670 123.541 4 125 19.3000 123.800 125 895 300 16 277
1954231N10159 1954 44 WP MM IDA 1954-08-27 21:00:00 TS 19.4926 122.762 main 133 123 PPP______PPP__ WP061954 19.4428 122.873 122 4 19.5997 122.707 9 895 0 0 19.4850 122.535 6 155 895 19.4428 122.873 TC 122 19.5424 122.711 4 122 19.4428 122.873 122 895 330 18 278
1954231N10159 1954 44 WP MM IDA 1954-08-28 00:00:00 TS 19.6167 121.833 895 tokyo main 130 123 OOO______OOO__ jtwc_wp WP061954 19.6000 121.900 120 4 19.7000 121.800 9 895 0 0 0 19.6000 121.600 6 155 895 19.6000 121.900 TC 120 19.6000 121.900 4 120 19.6000 121.900 120 896 360 17 278
1954231N10159 1954 44 WP MM IDA 1954-08-28 03:00:00 TS 19.7443 120.970 main 123 123 PPP______PPP__ WP061954 19.7223 121.005 105 3 19.8574 120.878 9 902 0 0 19.7992 120.785 6 145 902 19.7223 121.005 TC 105 19.6422 121.143 4 112 19.7223 121.005 105 902 360 16 278
1954231N10159 1954 44 WP MM IDA 1954-08-28 06:00:00 TS 19.8458 120.168 910 tokyo main 148 148 OOO______OPO__ jtwc_wp WP061954 19.8000 120.200 90 2 20.0000 120.000 9 910 0 0 0 20.0000 120.000 6 136 910 19.8000 120.200 TC 90 19.6749 120.406 4 105 19.8000 120.200 90 908 360 14 276
1954231N10159 1954 44 WP MM IDA 1954-08-28 09:00:00 TS 19.8852 119.452 main 199 199 PPP______PPP__ WP061954 19.8064 119.557 90 2 20.0493 119.234 9 915 0 0 20.1224 119.142 6 131 915 19.8064 119.557 TC 90 19.7203 119.665 4 97 19.8064 119.557 90 914 360 14 273
1954231N10159 1954 44 WP MM IDA 1954-08-28 12:00:00 TS 19.9167 118.733 920 tokyo main 260 260 OOO______OOO__ jtwc_wp WP061954 19.8000 118.900 90 2 20.1000 118.500 9 920 0 0 0 20.2000 118.300 6 126 920 19.8000 118.900 TC 90 19.8000 118.900 4 90 19.8000 118.900 90 921 360 15 274
1954231N10159 1954 44 WP MM IDA 1954-08-28 15:00:00 TS 19.9756 117.897 main 335 319 PPP______PPP__ WP061954 19.8053 118.022 90 2 20.2497 117.708 9 920 0 0 20.2495 117.535 6 126 920 19.8053 118.022 TC 90 19.9386 118.075 4 90 19.8053 118.022 90 927 360 16 276
1954231N10159 1954 44 WP MM IDA 1954-08-28 18:00:00 TS 20.0853 117.037 920 tokyo main 315 273 OOO______OPO__ jtwc_wp WP061954 19.9000 117.100 90 2 20.4000 116.900 9 920 0 0 0 20.3000 116.800 6 126 920 19.9000 117.100 TC 90 20.1119 117.223 4 90 19.9000 117.100 90 934 360 16 281
1954231N10159 1954 44 WP MM IDA 1954-08-28 21:00:00 TS 20.2758 116.220 main 271 232 PPP______PPP__ WP061954 20.1695 116.278 90 2 20.4499 116.077 9 925 0 0 20.3922 116.050 6 121 925 20.1695 116.278 TC 90 20.3042 116.359 4 90 20.1695 116.278 90 940 390 16 285
1954231N10159 1954 44 WP MM IDA 1954-08-29 00:00:00 TS 20.5000 115.433 930 tokyo main 229 183 OOO______OOO__ jtwc_wp WP061954 20.5000 115.500 90 2 20.5000 115.300 9 930 0 0 0 20.5000 115.300 6 116 930 20.5000 115.500 TC 90 20.5000 115.500 4 90 20.5000 115.500 90 947 420 15 287
1954231N10159 1954 44 WP MM IDA 1954-08-29 03:00:00 TS 20.7098 114.692 main 183 152 PPP______PPP__ WP061954 20.7793 114.765 90 2 20.6268 114.642 9 935 0 0 20.6071 114.558 6 111 930 20.7793 114.765 TC 90 20.6872 114.658 4 83 20.7793 114.765 90 953 390 15 286
1954231N10159 1954 44 WP MM IDA 1954-08-29 06:00:00 TS 20.8954 113.943 940 tokyo main 145 102 OOO______OPO__ jtwc_wp WP061954 21.0000 114.000 90 2 20.8000 114.000 9 940 0 0 0 20.7000 113.800 6 106 930 21.0000 114.000 TC 90 20.8650 113.831 4 77 21.0000 114.000 90 959 360 15 282
1954231N10159 1954 44 WP MM IDA 1954-08-29 09:00:00 TS 21.0339 113.119 main 101 67 PPP______PPP__ WP061954 21.1375 113.115 77 1 21.0073 113.273 9 945 0 0 20.7494 113.030 6 101 935 21.1375 113.115 TC 77 21.0353 113.014 4 71 21.1375 113.115 77 965 390 16 278
1954231N10159 1954 44 WP MM IDA 1954-08-29 12:00:00 TS 21.1200 112.260 950 tokyo main 67 24 OOO______OOO__ jtwc_wp WP061954 21.2000 112.200 65 1 21.2000 112.500 9 950 0 0 0 20.8000 112.200 5 97 940 21.2000 112.200 TC 65 21.2000 112.200 4 65 21.2000 112.200 65 972 420 16 274
1954231N10159 1954 44 WP MM IDA 1954-08-29 15:00:00 TS 21.1552 111.392 main 24 0 PPP______P_P__ WP061954 21.1924 111.312 65 1 21.3070 111.722 9 955 0 0 20.9002 111.250 5 92 945 21.1924 111.312 TC 65 4 21.2131 111.332 65 978 390 16 273
1954231N10159 1954 44 WP MM IDA 1954-08-29 18:00:00 TS 21.2000 110.547 960 tokyo main 0 0 OOO______O_O__ jtwc_wp WP061954 21.2000 110.500 65 1 21.4000 110.900 9 960 0 0 0 21.0000 110.300 5 87 950 21.2000 110.500 TC 65 4 21.2000 110.500 65 985 360 15 277
1954231N10159 1954 44 WP MM IDA 1954-08-29 21:00:00 TS 21.3284 109.770 main 0 0 PPP______P____ WP061954 21.3494 109.813 65 1 21.5500 110.000 9 965 0 0 21.0646 109.455 5 82 952 21.3494 109.813 TC 65 4 14 281
1954231N10159 1954 44 WP MM IDA 1954-08-30 00:00:00 TS 21.4733 109.073 970 tokyo main 10 10 OOO______O____ jtwc_wp WP061954 21.5000 109.200 65 1 21.7000 109.100 9 970 0 0 0 21.1000 108.700 4 77 955 21.5000 109.200 TC 65 13 280
1954231N10159 1954 44 WP MM IDA 1954-08-30 03:00:00 TS 21.5401 108.417 main 11 0 PPP______P____ WP061954 21.5149 108.577 62 0 21.8068 108.292 9 975 0 0 21.1079 108.027 4 72 960 21.5149 108.577 TC 62 12 276
1954231N10159 1954 44 WP MM IDA 1954-08-30 06:00:00 TS 21.5923 107.800 980 tokyo main 0 0 OOO______O____ jtwc_wp WP061954 21.5000 108.000 60 0 21.9000 107.500 9 980 0 0 0 21.1000 107.400 4 68 965 21.5000 108.000 TC 60 11 277
1954231N10159 1954 44 WP MM IDA 1954-08-30 09:00:00 TS 21.6691 107.261 main 0 0 PP_______P____ WP061954 21.5038 107.559 55 0 21.9996 106.665 9 982 0 0 4 21.5038 107.559 TC 55 11 279
1954231N10159 1954 44 WP MM IDA 1954-08-30 12:00:00 TS 21.7667 106.600 985 tokyo main 0 0 OO_______O____ jtwc_wp WP061954 21.6000 107.000 50 0 22.1000 105.800 9 985 0 0 0 21.6000 107.000 TC 50 15 282
1954231N10159 1954 44 WP MM IDA 1954-08-30 15:00:00 TS 21.9677 105.686 main 0 0 PP_______P____ WP061954 21.8480 106.075 47 0 22.2071 104.908 9 987 0 0 21.8480 106.075 TC 47 19 285
1954231N10159 1954 44 WP MM IDA 1954-08-30 18:00:00 TS 22.2333 104.667 990 tokyo main 0 0 OO_______O____ jtwc_wp WP061954 22.2000 105.000 45 0 22.3000 104.000 2 990 0 0 0 22.2000 105.000 TC 45 19 285
1954231N10159 1954 44 WP MM IDA 1954-08-30 21:00:00 TS 22.4641 103.669 main 0 0 PP_______P____ WP061954 22.5325 103.962 42 0 22.3272 103.084 2 990 0 0 22.5325 103.962 TC 42 19 288
1954231N10159 1954 44 WP MM IDA 1954-08-31 00:00:00 TS 22.8000 102.733 990 tokyo main 0 0 OO_______O____ jtwc_wp WP061954 23.0000 103.000 40 0 22.4000 102.200 2 990 0 0 0 23.0000 103.000 TC 40 18 299
1954231N10159 1954 44 WP MM IDA 1954-08-31 03:00:00 TS 23.3474 101.942 main 0 0 PP_______P____ WP061954 23.6966 102.212 37 0 22.6491 101.401 2 991 0 0 23.6966 102.212 TC 37 18 310
1954231N10159 1954 44 WP MM IDA 1954-08-31 06:00:00 TS 23.9667 101.200 992 tokyo main 0 0 OO_______O____ jtwc_wp WP061954 24.5000 101.500 35 0 22.9000 100.600 2 992 0 0 0 24.5000 101.500 TC 35 18 310
1954231N10159 1954 44 WP MM IDA 1954-08-31 09:00:00 TS 24.5128 100.418 main 0 0 PP_______P____ WP061954 25.2686 100.764 32 -1 23.0014 99.7244 2 992 0 0 25.2686 100.764 TC 32 18 305
1954231N10159 1954 44 NI BB IDA 1954-08-31 12:00:00 TS 25.0000 99.6000 main 0 OO_______O____ jtwc_wp WP061954 26.0000 100.000 30 -1 23.0000 98.8000 2 992 0 0 0 26.0000 100.000 TC 30 18 303

Digital Typhoon Data and Search

About IBTrACS Database

This database is a web-friendly format of International Best Track Archive for Climate Stewardship (IBTrACS), a global best track data archive curated by NOAA dating back to 1842.

Updated: 2021-10-27